Valor — WDD8691 — position and weather

sailwx.info

Track history (hours):
 
Tides and Currents Weather Stations Pressure Air Temp Water Temp Dewpoint Dewpoint Depression Visibility Wind Speed Wind Dir Waves Ship Positions

Valor

Owner: Crowley Marine Services, Inc., Seattle, WA. More information available from US FCC via Universal Licensing System and Coast Guard Vessel Documentation Center.

Last reported at 2014-Nov-28 17:34 UTC. Time now 2014-Nov-28 18:09 UTC.
Position N 37°49' W 122°19'.

Length 8 m; draft 5.5 m.

Type: Tug. MMSI: 367301480.

Date/timePositionNaut miles runAvg speedWind from/ knotsBaromVisibWave heightAir tempDewpointWater temp
2014-Nov-28 17:34N 37°49' W 122°19'0 0.0
2014-Nov-28 16:33N 37°49' W 122°19'0 0.0
2014-Nov-28 15:33N 37°49' W 122°19'0 0.0
2014-Nov-28 14:34N 37°49' W 122°19'0 0.0
2014-Nov-28 13:33N 37°49' W 122°19'0 0.0
2014-Nov-28 12:33N 37°49' W 122°19'0 0.0
2014-Nov-28 11:33N 37°49' W 122°19'0 0.0
2014-Nov-28 10:34N 37°49' W 122°19'0 0.0
2014-Nov-28 09:34N 37°49' W 122°19'0 0.0
2014-Nov-28 08:33N 37°49' W 122°19'0 0.0
2014-Nov-28 07:34N 37°49' W 122°19'0 0.0
2014-Nov-28 06:34N 37°49' W 122°19'0 0.0
2014-Nov-28 05:33N 37°49' W 122°19'0 0.0
2014-Nov-28 04:34N 37°49' W 122°19'0 0.0
2014-Nov-28 03:34N 37°49' W 122°19'0 0.0
2014-Nov-28 02:34N 37°49' W 122°19'0 0.0
2014-Nov-28 01:33N 37°49' W 122°19'0 0.0
2014-Nov-28 00:33N 37°49' W 122°19'0 0.0
2014-Nov-27 23:33N 37°49' W 122°19'0 0.0
2014-Nov-27 22:33N 37°49' W 122°19'0 0.0
2014-Nov-27 21:33N 37°49' W 122°19'0 0.0
2014-Nov-27 20:34N 37°49' W 122°19'3 3.3
2014-Nov-27 19:34N 37°51' W 122°22'5 5.2
2014-Nov-27 18:33N 37°55' W 122°25'2 1.6
2014-Nov-27 17:33N 37°57' W 122°26'4 4.0
2014-Nov-27 16:34N 37°53' W 122°25'6 6.0
2014-Nov-27 15:34N 37°49' W 122°19'0 0.0
2014-Nov-27 14:33N 37°49' W 122°19'4 4.0
2014-Nov-27 13:33N 37°46' W 122°21'8 7.6
2014-Nov-27 12:33N 37°52' W 122°25'9 8.9
2014-Nov-27 11:33N 38°01' W 122°24'7 6.7
2014-Nov-27 10:27N 38°04' W 122°15'0 0.2
2014-Nov-27 09:33N 38°03' W 122°15'0 0.0
2014-Nov-27 08:33N 38°03' W 122°15'0 0.0
2014-Nov-27 07:33N 38°03' W 122°15'0 0.0
2014-Nov-27 06:33N 38°03' W 122°15'0 0.0
2014-Nov-27 05:33N 38°03' W 122°15'0 0.0
2014-Nov-27 04:33N 38°03' W 122°15'0 0.0
2014-Nov-27 03:33N 38°03' W 122°15'0 0.0
2014-Nov-27 02:31N 38°03' W 122°15'0 0.0
2014-Nov-27 01:33N 38°03' W 122°15'0 0.0
2014-Nov-27 00:21N 38°03' W 122°15'0 0.0
2014-Nov-26 23:22N 38°03' W 122°15'0 0.0
2014-Nov-26 22:33N 38°03' W 122°15'6 6.3
2014-Nov-26 21:32N 38°01' W 122°23'6 6.5
2014-Nov-26 20:34N 37°55' W 122°25'0 0.0
2014-Nov-26 19:33N 37°55' W 122°25'7 7.0
2014-Nov-26 18:33N 37°49' W 122°21'2 2.0
2014-Nov-26 17:33N 37°49' W 122°19'4 4.2
2014-Nov-26 16:33N 37°51' W 122°23'5 4.8
2014-Nov-26 15:33N 37°56' W 122°25'0 0.5
2014-Nov-26 14:34N 37°55' W 122°25'0 0.0
2014-Nov-26 13:33N 37°55' W 122°25'0 0.0
2014-Nov-26 12:33N 37°55' W 122°25'0 0.0
2014-Nov-26 11:33N 37°55' W 122°25'0 0.0
2014-Nov-26 10:34N 37°55' W 122°25'0 0.0
2014-Nov-26 09:34N 37°55' W 122°25'0 0.0
2014-Nov-26 08:33N 37°55' W 122°25'0 0.0
2014-Nov-26 07:33N 37°55' W 122°25'0 0.0
2014-Nov-26 06:34N 37°55' W 122°25'0 0.0
2014-Nov-26 05:34N 37°55' W 122°25'0 0.0
2014-Nov-26 04:34N 37°55' W 122°25'0 0.5
2014-Nov-26 03:34N 37°56' W 122°25'0 0.1
2014-Nov-26 02:33N 37°56' W 122°25'5 4.6
2014-Nov-26 01:34N 37°51' W 122°23'4 4.2
2014-Nov-26 00:34N 37°49' W 122°19'0 0.0
2014-Nov-25 23:34N 37°49' W 122°19'0 0.0
2014-Nov-25 22:33N 37°49' W 122°19'0 0.0
2014-Nov-25 21:34N 37°49' W 122°19'0 0.0
2014-Nov-25 20:33N 37°49' W 122°19'0 0.0
2014-Nov-25 19:34N 37°49' W 122°19'0 0.0
2014-Nov-25 18:33N 37°49' W 122°19'0 0.0
2014-Nov-25 17:33N 37°49' W 122°19'0 0.0
2014-Nov-25 16:34N 37°49' W 122°19'2 1.6
2014-Nov-25 15:33N 37°48' W 122°19'2 1.6
2014-Nov-25 14:34N 37°48' W 122°21'1 1.2
2014-Nov-25 13:33N 37°49' W 122°20'3 3.4
2014-Nov-25 12:34N 37°48' W 122°24'0 0.1
2014-Nov-25 11:33N 37°48' W 122°24'0 0.0
2014-Nov-25 10:33N 37°48' W 122°24'0 0.0
2014-Nov-25 09:33N 37°48' W 122°24'0 0.0
2014-Nov-25 08:33N 37°48' W 122°24'0 0.0
2014-Nov-25 07:33N 37°48' W 122°24'0 0.0
2014-Nov-25 06:33N 37°48' W 122°24'0 0.0
2014-Nov-25 05:33N 37°48' W 122°24'7 6.7
2014-Nov-25 04:34N 37°55' W 122°25'0 0.2
2014-Nov-25 03:33N 37°55' W 122°25'2 2.0
2014-Nov-25 02:33N 37°53' W 122°25'9 8.8
2014-Nov-25 01:33N 38°02' W 122°22'1110.1
2014-Nov-25 00:26N 38°02' W 122°08'9 4.1
2014-Nov-24 22:15N 38°03' W 122°19'6 9.0
2014-Nov-24 21:34N 37°59' W 122°25'9 8.6
2014-Nov-24 20:33N 37°51' W 122°24'6 5.6
2014-Nov-24 19:34N 37°46' W 122°21'4 3.7
2014-Nov-24 18:34N 37°49' W 122°19'0 0.0
2014-Nov-24 17:34N 37°49' W 122°19'0 0.0
2014-Nov-24 16:33N 37°49' W 122°19'0 0.0
2014-Nov-24 15:34N 37°49' W 122°19'0 0.0
2014-Nov-24 14:33N 37°49' W 122°19'0 0.2
2014-Nov-24 13:34N 37°49' W 122°19'0 0.2
2014-Nov-24 12:33N 37°49' W 122°19'0 0.4
2014-Nov-24 11:34N 37°49' W 122°19'0 0.0
2014-Nov-24 10:34N 37°49' W 122°19'0 0.0
2014-Nov-24 09:34N 37°49' W 122°19'0 0.0
2014-Nov-24 08:33N 37°49' W 122°19'0 0.0
2014-Nov-24 07:33N 37°49' W 122°19'0 0.0
2014-Nov-24 06:33N 37°49' W 122°19'0 0.0
2014-Nov-24 05:34N 37°49' W 122°19'0 0.0
2014-Nov-24 04:34N 37°49' W 122°19'0 0.0
2014-Nov-24 03:34N 37°49' W 122°19'0 0.0
2014-Nov-24 02:34N 37°49' W 122°19'1 0.8
2014-Nov-24 01:34N 37°49' W 122°19'0 0.3
2014-Nov-24 00:33N 37°49' W 122°20'0 0.0
2014-Nov-23 23:34N 37°49' W 122°20'0 0.0
2014-Nov-23 22:33N 37°49' W 122°20'2 1.6
2014-Nov-23 21:33N 37°49' W 122°21'6 6.4
2014-Nov-23 20:33N 37°55' W 122°25'1 1.1
2014-Nov-23 19:34N 37°55' W 122°26'5 5.3
2014-Nov-23 18:33N 37°50' W 122°23'3 3.3
2014-Nov-23 17:33N 37°49' W 122°19'0 0.0
2014-Nov-23 16:34N 37°49' W 122°19'0 0.0
2014-Nov-23 15:34N 37°49' W 122°19'2 1.7
2014-Nov-23 14:33N 37°48' W 122°21'2 2.3
2014-Nov-23 13:33N 37°46' W 122°21'3 3.0
2014-Nov-23 12:34N 37°48' W 122°24'0 0.0
2014-Nov-23 11:34N 37°48' W 122°24'0 0.0
2014-Nov-23 10:33N 37°48' W 122°24'0 0.0
2014-Nov-23 09:33N 37°48' W 122°24'1 1.4
2014-Nov-23 08:34N 37°50' W 122°24'5 4.8
2014-Nov-23 07:33N 37°54' W 122°22'1 0.5
2014-Nov-23 06:33N 37°54' W 122°22'3 2.8
2014-Nov-23 05:33N 37°54' W 122°25'2 1.8
2014-Nov-23 04:34N 37°56' W 122°25'2 1.6
2014-Nov-23 03:33N 37°54' W 122°25'7 6.7
2014-Nov-23 02:34N 37°48' W 122°21'1 1.0
2014-Nov-23 01:33N 37°49' W 122°19'2 2.0
2014-Nov-23 00:33N 37°48' W 122°22'2 1.9
2014-Nov-22 23:34N 37°49' W 122°20'0 0.1
2014-Nov-22 22:34N 37°49' W 122°20'8 7.5
2014-Nov-22 21:33N 37°49' W 122°29'4 4.1
2014-Nov-22 20:33N 37°51' W 122°25'9 9.0
2014-Nov-22 19:33N 38°00' W 122°25'9 7.9
2014-Nov-22 18:26N 38°04' W 122°14'3 1.6
2014-Nov-22 16:19N 38°02' W 122°10'4 1.9
2014-Nov-22 14:21N 38°04' W 122°15'0 0.3
2014-Nov-22 13:30N 38°04' W 122°14'0 0.0
2014-Nov-22 12:30N 38°04' W 122°14'0 0.0
2014-Nov-22 07:22N 38°03' W 122°15'910.4
2014-Nov-22 06:33N 37°60' W 122°25'6 5.6
2014-Nov-22 05:33N 37°55' W 122°22'0 0.5
2014-Nov-22 04:33N 37°54' W 122°22'2 2.5
2014-Nov-22 03:33N 37°55' W 122°25'0 0.3
2014-Nov-22 02:33N 37°55' W 122°25'2 2.5
2014-Nov-22 01:33N 37°55' W 122°22'0 0.0
2014-Nov-22 00:33N 37°55' W 122°22'0 0.0
2014-Nov-21 23:33N 37°55' W 122°22'0 0.0
2014-Nov-21 22:33N 37°55' W 122°22'0 0.0
2014-Nov-21 21:33N 37°55' W 122°22'0 0.0
2014-Nov-21 20:33N 37°55' W 122°22'0 0.0
2014-Nov-21 19:33N 37°55' W 122°22'0 0.0
2014-Nov-21 18:33N 37°55' W 122°22'0 0.0
2014-Nov-21 17:33N 37°55' W 122°22'0 0.0
2014-Nov-21 16:33N 37°55' W 122°22'0 0.0
2014-Nov-21 15:34N 37°55' W 122°22'0 0.0
2014-Nov-21 14:34N 37°55' W 122°22'0 0.0
2014-Nov-21 13:34N 37°55' W 122°22'0 0.0
2014-Nov-21 12:33N 37°55' W 122°22'0 0.0
2014-Nov-21 11:33N 37°55' W 122°22'0 0.0
2014-Nov-21 10:33N 37°55' W 122°22'0 0.0
2014-Nov-21 09:33N 37°55' W 122°22'0 0.0
2014-Nov-21 08:33N 37°55' W 122°22'0 0.0
2014-Nov-21 07:34N 37°55' W 122°22'0 0.0
2014-Nov-21 06:33N 37°55' W 122°22'1 0.7
2014-Nov-21 05:33N 37°55' W 122°22'0 0.0
2014-Nov-21 04:34N 37°55' W 122°22'0 0.0
2014-Nov-21 03:33N 37°55' W 122°22'1 0.7
2014-Nov-21 02:34N 37°55' W 122°22'0 0.0
2014-Nov-21 01:34N 37°55' W 122°22'1 0.6
2014-Nov-21 00:34N 37°54' W 122°22'8 7.7
2014-Nov-20 23:33N 38°02' W 122°22'7 0.4
2014-Nov-20 08:30N 38°04' W 122°14'2 1.0
2014-Nov-20 06:10N 38°03' W 122°11'5 8.3
2014-Nov-20 05:31N 38°03' W 122°18'1010.4
2014-Nov-20 04:33N 37°56' W 122°27'1010.1
2014-Nov-20 03:34N 37°47' W 122°22'1 1.4
2014-Nov-20 02:34N 37°46' W 122°21'3 3.2
2014-Nov-20 01:33N 37°48' W 122°24'0 0.0
2014-Nov-20 00:34N 37°48' W 122°24'2 1.5
2014-Nov-19 23:34N 37°47' W 122°22'1 1.4
2014-Nov-19 22:34N 37°49' W 122°23'6 6.2
2014-Nov-19 21:33N 37°49' W 122°31'3 2.6
2014-Nov-19 20:34N 37°49' W 122°28'7 7.1
2014-Nov-19 19:33N 37°49' W 122°19'0 0.0
2014-Nov-19 18:33N 37°49' W 122°19'0 0.0
2014-Nov-19 17:33N 37°49' W 122°19'0 0.0
2014-Nov-19 16:34N 37°49' W 122°19'0 0.0
2014-Nov-19 15:33N 37°49' W 122°19'0 0.0
2014-Nov-19 14:33N 37°49' W 122°19'1 1.2
2014-Nov-19 13:34N 37°49' W 122°20'1 1.2
2014-Nov-19 12:34N 37°49' W 122°19'0 0.0
2014-Nov-19 11:34N 37°49' W 122°19'0 0.0
2014-Nov-19 10:34N 37°49' W 122°19'0 0.0
2014-Nov-19 09:34N 37°49' W 122°19'0 0.0
2014-Nov-19 08:34N 37°49' W 122°19'0 0.0
2014-Nov-19 07:34N 37°49' W 122°19'0 0.0
2014-Nov-19 06:33N 37°49' W 122°19'0 0.1
2014-Nov-19 05:33N 37°49' W 122°19'2 2.0
2014-Nov-19 04:33N 37°48' W 122°17'2 1.5
2014-Nov-19 03:33N 37°48' W 122°19'1 0.6
2014-Nov-19 02:33N 37°48' W 122°18'1 0.8
2014-Nov-19 01:34N 37°48' W 122°19'2 1.6
2014-Nov-19 00:33N 37°49' W 122°19'0 0.0
2014-Nov-18 23:34N 37°49' W 122°19'0 0.0
2014-Nov-18 22:34N 37°49' W 122°19'0 0.0
2014-Nov-18 21:34N 37°49' W 122°19'0 0.0
2014-Nov-18 20:34N 37°49' W 122°19'0 0.0
2014-Nov-18 19:34N 37°49' W 122°19'0 0.0
2014-Nov-18 18:34N 37°49' W 122°19'  
Track history (hours):
 
Tides and Currents Weather Stations Pressure Air Temp Water Temp Dewpoint Dewpoint Depression Visibility Wind Speed Wind Dir Waves Ship Positions

Valor

Owner: Crowley Marine Services, Inc., Seattle, WA. More information available from US FCC via Universal Licensing System and Coast Guard Vessel Documentation Center.

Last reported at 2014-Nov-28 17:34 UTC. Time now 2014-Nov-28 18:09 UTC.
Position N 37°49' W 122°19'.

Length 8 m; draft 5.5 m.

Type: Tug. MMSI: 367301480.

Date/timePositionNaut miles runAvg speedWind from/ knotsBaromVisibWave heightAir tempDewpointWater temp
2014-Nov-28 17:34N 37°49' W 122°19'0 0.0
2014-Nov-28 16:33N 37°49' W 122°19'0 0.0
2014-Nov-28 15:33N 37°49' W 122°19'0 0.0
2014-Nov-28 14:34N 37°49' W 122°19'0 0.0
2014-Nov-28 13:33N 37°49' W 122°19'0 0.0
2014-Nov-28 12:33N 37°49' W 122°19'0 0.0
2014-Nov-28 11:33N 37°49' W 122°19'0 0.0
2014-Nov-28 10:34N 37°49' W 122°19'0 0.0
2014-Nov-28 09:34N 37°49' W 122°19'0 0.0
2014-Nov-28 08:33N 37°49' W 122°19'0 0.0
2014-Nov-28 07:34N 37°49' W 122°19'0 0.0
2014-Nov-28 06:34N 37°49' W 122°19'0 0.0
2014-Nov-28 05:33N 37°49' W 122°19'0 0.0
2014-Nov-28 04:34N 37°49' W 122°19'0 0.0
2014-Nov-28 03:34N 37°49' W 122°19'0 0.0
2014-Nov-28 02:34N 37°49' W 122°19'0 0.0
2014-Nov-28 01:33N 37°49' W 122°19'0 0.0
2014-Nov-28 00:33N 37°49' W 122°19'0 0.0
2014-Nov-27 23:33N 37°49' W 122°19'0 0.0
2014-Nov-27 22:33N 37°49' W 122°19'0 0.0
2014-Nov-27 21:33N 37°49' W 122°19'0 0.0
2014-Nov-27 20:34N 37°49' W 122°19'3 3.3
2014-Nov-27 19:34N 37°51' W 122°22'5 5.2
2014-Nov-27 18:33N 37°55' W 122°25'2 1.6
2014-Nov-27 17:33N 37°57' W 122°26'4 4.0
2014-Nov-27 16:34N 37°53' W 122°25'6 6.0
2014-Nov-27 15:34N 37°49' W 122°19'0 0.0
2014-Nov-27 14:33N 37°49' W 122°19'4 4.0
2014-Nov-27 13:33N 37°46' W 122°21'8 7.6
2014-Nov-27 12:33N 37°52' W 122°25'9 8.9
2014-Nov-27 11:33N 38°01' W 122°24'7 6.7
2014-Nov-27 10:27N 38°04' W 122°15'0 0.2
2014-Nov-27 09:33N 38°03' W 122°15'0 0.0
2014-Nov-27 08:33N 38°03' W 122°15'0 0.0
2014-Nov-27 07:33N 38°03' W 122°15'0 0.0
2014-Nov-27 06:33N 38°03' W 122°15'0 0.0
2014-Nov-27 05:33N 38°03' W 122°15'0 0.0
2014-Nov-27 04:33N 38°03' W 122°15'0 0.0
2014-Nov-27 03:33N 38°03' W 122°15'0 0.0
2014-Nov-27 02:31N 38°03' W 122°15'0 0.0
2014-Nov-27 01:33N 38°03' W 122°15'0 0.0
2014-Nov-27 00:21N 38°03' W 122°15'0 0.0
2014-Nov-26 23:22N 38°03' W 122°15'0 0.0
2014-Nov-26 22:33N 38°03' W 122°15'6 6.3
2014-Nov-26 21:32N 38°01' W 122°23'6 6.5
2014-Nov-26 20:34N 37°55' W 122°25'0 0.0
2014-Nov-26 19:33N 37°55' W 122°25'7 7.0
2014-Nov-26 18:33N 37°49' W 122°21'2 2.0
2014-Nov-26 17:33N 37°49' W 122°19'4 4.2
2014-Nov-26 16:33N 37°51' W 122°23'5 4.8
2014-Nov-26 15:33N 37°56' W 122°25'0 0.5
2014-Nov-26 14:34N 37°55' W 122°25'0 0.0
2014-Nov-26 13:33N 37°55' W 122°25'0 0.0
2014-Nov-26 12:33N 37°55' W 122°25'0 0.0
2014-Nov-26 11:33N 37°55' W 122°25'0 0.0
2014-Nov-26 10:34N 37°55' W 122°25'0 0.0
2014-Nov-26 09:34N 37°55' W 122°25'0 0.0
2014-Nov-26 08:33N 37°55' W 122°25'0 0.0
2014-Nov-26 07:33N 37°55' W 122°25'0 0.0
2014-Nov-26 06:34N 37°55' W 122°25'0 0.0
2014-Nov-26 05:34N 37°55' W 122°25'0 0.0
2014-Nov-26 04:34N 37°55' W 122°25'0 0.5
2014-Nov-26 03:34N 37°56' W 122°25'0 0.1
2014-Nov-26 02:33N 37°56' W 122°25'5 4.6
2014-Nov-26 01:34N 37°51' W 122°23'4 4.2
2014-Nov-26 00:34N 37°49' W 122°19'0 0.0
2014-Nov-25 23:34N 37°49' W 122°19'0 0.0
2014-Nov-25 22:33N 37°49' W 122°19'0 0.0
2014-Nov-25 21:34N 37°49' W 122°19'0 0.0
2014-Nov-25 20:33N 37°49' W 122°19'0 0.0
2014-Nov-25 19:34N 37°49' W 122°19'0 0.0
2014-Nov-25 18:33N 37°49' W 122°19'0 0.0
2014-Nov-25 17:33N 37°49' W 122°19'0 0.0
2014-Nov-25 16:34N 37°49' W 122°19'2 1.6
2014-Nov-25 15:33N 37°48' W 122°19'2 1.6
2014-Nov-25 14:34N 37°48' W 122°21'1 1.2
2014-Nov-25 13:33N 37°49' W 122°20'3 3.4
2014-Nov-25 12:34N 37°48' W 122°24'0 0.1
2014-Nov-25 11:33N 37°48' W 122°24'0 0.0
2014-Nov-25 10:33N 37°48' W 122°24'0 0.0
2014-Nov-25 09:33N 37°48' W 122°24'0 0.0
2014-Nov-25 08:33N 37°48' W 122°24'0 0.0
2014-Nov-25 07:33N 37°48' W 122°24'0 0.0
2014-Nov-25 06:33N 37°48' W 122°24'0 0.0
2014-Nov-25 05:33N 37°48' W 122°24'7 6.7
2014-Nov-25 04:34N 37°55' W 122°25'0 0.2
2014-Nov-25 03:33N 37°55' W 122°25'2 2.0
2014-Nov-25 02:33N 37°53' W 122°25'9 8.8
2014-Nov-25 01:33N 38°02' W 122°22'1110.1
2014-Nov-25 00:26N 38°02' W 122°08'9 4.1
2014-Nov-24 22:15N 38°03' W 122°19'6 9.0
2014-Nov-24 21:34N 37°59' W 122°25'9 8.6
2014-Nov-24 20:33N 37°51' W 122°24'6 5.6
2014-Nov-24 19:34N 37°46' W 122°21'4 3.7
2014-Nov-24 18:34N 37°49' W 122°19'0 0.0
2014-Nov-24 17:34N 37°49' W 122°19'0 0.0
2014-Nov-24 16:33N 37°49' W 122°19'0 0.0
2014-Nov-24 15:34N 37°49' W 122°19'0 0.0
2014-Nov-24 14:33N 37°49' W 122°19'0 0.2
2014-Nov-24 13:34N 37°49' W 122°19'0 0.2
2014-Nov-24 12:33N 37°49' W 122°19'0 0.4
2014-Nov-24 11:34N 37°49' W 122°19'0 0.0
2014-Nov-24 10:34N 37°49' W 122°19'0 0.0
2014-Nov-24 09:34N 37°49' W 122°19'0 0.0
2014-Nov-24 08:33N 37°49' W 122°19'0 0.0
2014-Nov-24 07:33N 37°49' W 122°19'0 0.0
2014-Nov-24 06:33N 37°49' W 122°19'0 0.0
2014-Nov-24 05:34N 37°49' W 122°19'0 0.0
2014-Nov-24 04:34N 37°49' W 122°19'0 0.0
2014-Nov-24 03:34N 37°49' W 122°19'0 0.0
2014-Nov-24 02:34N 37°49' W 122°19'1 0.8
2014-Nov-24 01:34N 37°49' W 122°19'0 0.3
2014-Nov-24 00:33N 37°49' W 122°20'0 0.0
2014-Nov-23 23:34N 37°49' W 122°20'0 0.0
2014-Nov-23 22:33N 37°49' W 122°20'2 1.6
2014-Nov-23 21:33N 37°49' W 122°21'6 6.4
2014-Nov-23 20:33N 37°55' W 122°25'1 1.1
2014-Nov-23 19:34N 37°55' W 122°26'5 5.3
2014-Nov-23 18:33N 37°50' W 122°23'3 3.3
2014-Nov-23 17:33N 37°49' W 122°19'0 0.0
2014-Nov-23 16:34N 37°49' W 122°19'0 0.0
2014-Nov-23 15:34N 37°49' W 122°19'2 1.7
2014-Nov-23 14:33N 37°48' W 122°21'2 2.3
2014-Nov-23 13:33N 37°46' W 122°21'3 3.0
2014-Nov-23 12:34N 37°48' W 122°24'0 0.0
2014-Nov-23 11:34N 37°48' W 122°24'0 0.0
2014-Nov-23 10:33N 37°48' W 122°24'0 0.0
2014-Nov-23 09:33N 37°48' W 122°24'1 1.4
2014-Nov-23 08:34N 37°50' W 122°24'5 4.8
2014-Nov-23 07:33N 37°54' W 122°22'1 0.5
2014-Nov-23 06:33N 37°54' W 122°22'3 2.8
2014-Nov-23 05:33N 37°54' W 122°25'2 1.8
2014-Nov-23 04:34N 37°56' W 122°25'2 1.6
2014-Nov-23 03:33N 37°54' W 122°25'7 6.7
2014-Nov-23 02:34N 37°48' W 122°21'1 1.0
2014-Nov-23 01:33N 37°49' W 122°19'2 2.0
2014-Nov-23 00:33N 37°48' W 122°22'2 1.9
2014-Nov-22 23:34N 37°49' W 122°20'0 0.1
2014-Nov-22 22:34N 37°49' W 122°20'8 7.5
2014-Nov-22 21:33N 37°49' W 122°29'4 4.1
2014-Nov-22 20:33N 37°51' W 122°25'9 9.0
2014-Nov-22 19:33N 38°00' W 122°25'9 7.9
2014-Nov-22 18:26N 38°04' W 122°14'3 1.6
2014-Nov-22 16:19N 38°02' W 122°10'4 1.9
2014-Nov-22 14:21N 38°04' W 122°15'0 0.3
2014-Nov-22 13:30N 38°04' W 122°14'0 0.0
2014-Nov-22 12:30N 38°04' W 122°14'0 0.0
2014-Nov-22 07:22N 38°03' W 122°15'910.4
2014-Nov-22 06:33N 37°60' W 122°25'6 5.6
2014-Nov-22 05:33N 37°55' W 122°22'0 0.5
2014-Nov-22 04:33N 37°54' W 122°22'2 2.5
2014-Nov-22 03:33N 37°55' W 122°25'0 0.3
2014-Nov-22 02:33N 37°55' W 122°25'2 2.5
2014-Nov-22 01:33N 37°55' W 122°22'0 0.0
2014-Nov-22 00:33N 37°55' W 122°22'0 0.0
2014-Nov-21 23:33N 37°55' W 122°22'0 0.0
2014-Nov-21 22:33N 37°55' W 122°22'0 0.0
2014-Nov-21 21:33N 37°55' W 122°22'0 0.0
2014-Nov-21 20:33N 37°55' W 122°22'0 0.0
2014-Nov-21 19:33N 37°55' W 122°22'0 0.0
2014-Nov-21 18:33N 37°55' W 122°22'0 0.0
2014-Nov-21 17:33N 37°55' W 122°22'0 0.0
2014-Nov-21 16:33N 37°55' W 122°22'0 0.0
2014-Nov-21 15:34N 37°55' W 122°22'0 0.0
2014-Nov-21 14:34N 37°55' W 122°22'0 0.0
2014-Nov-21 13:34N 37°55' W 122°22'0 0.0
2014-Nov-21 12:33N 37°55' W 122°22'0 0.0
2014-Nov-21 11:33N 37°55' W 122°22'0 0.0
2014-Nov-21 10:33N 37°55' W 122°22'0 0.0
2014-Nov-21 09:33N 37°55' W 122°22'0 0.0
2014-Nov-21 08:33N 37°55' W 122°22'0 0.0
2014-Nov-21 07:34N 37°55' W 122°22'0 0.0
2014-Nov-21 06:33N 37°55' W 122°22'1 0.7
2014-Nov-21 05:33N 37°55' W 122°22'0 0.0
2014-Nov-21 04:34N 37°55' W 122°22'0 0.0
2014-Nov-21 03:33N 37°55' W 122°22'1 0.7
2014-Nov-21 02:34N 37°55' W 122°22'0 0.0
2014-Nov-21 01:34N 37°55' W 122°22'1 0.6
2014-Nov-21 00:34N 37°54' W 122°22'8 7.7
2014-Nov-20 23:33N 38°02' W 122°22'7 0.4
2014-Nov-20 08:30N 38°04' W 122°14'2 1.0
2014-Nov-20 06:10N 38°03' W 122°11'5 8.3
2014-Nov-20 05:31N 38°03' W 122°18'1010.4
2014-Nov-20 04:33N 37°56' W 122°27'1010.1
2014-Nov-20 03:34N 37°47' W 122°22'1 1.4
2014-Nov-20 02:34N 37°46' W 122°21'3 3.2
2014-Nov-20 01:33N 37°48' W 122°24'0 0.0
2014-Nov-20 00:34N 37°48' W 122°24'2 1.5
2014-Nov-19 23:34N 37°47' W 122°22'1 1.4
2014-Nov-19 22:34N 37°49' W 122°23'6 6.2
2014-Nov-19 21:33N 37°49' W 122°31'3 2.6
2014-Nov-19 20:34N 37°49' W 122°28'7 7.1
2014-Nov-19 19:33N 37°49' W 122°19'0 0.0
2014-Nov-19 18:33N 37°49' W 122°19'0 0.0
2014-Nov-19 17:33N 37°49' W 122°19'0 0.0
2014-Nov-19 16:34N 37°49' W 122°19'0 0.0
2014-Nov-19 15:33N 37°49' W 122°19'0 0.0
2014-Nov-19 14:33N 37°49' W 122°19'1 1.2
2014-Nov-19 13:34N 37°49' W 122°20'1 1.2
2014-Nov-19 12:34N 37°49' W 122°19'0 0.0
2014-Nov-19 11:34N 37°49' W 122°19'0 0.0
2014-Nov-19 10:34N 37°49' W 122°19'0 0.0
2014-Nov-19 09:34N 37°49' W 122°19'0 0.0
2014-Nov-19 08:34N 37°49' W 122°19'0 0.0
2014-Nov-19 07:34N 37°49' W 122°19'0 0.0
2014-Nov-19 06:33N 37°49' W 122°19'0 0.1
2014-Nov-19 05:33N 37°49' W 122°19'2 2.0
2014-Nov-19 04:33N 37°48' W 122°17'2 1.5
2014-Nov-19 03:33N 37°48' W 122°19'1 0.6
2014-Nov-19 02:33N 37°48' W 122°18'1 0.8
2014-Nov-19 01:34N 37°48' W 122°19'2 1.6
2014-Nov-19 00:33N 37°49' W 122°19'0 0.0
2014-Nov-18 23:34N 37°49' W 122°19'0 0.0
2014-Nov-18 22:34N 37°49' W 122°19'0 0.0
2014-Nov-18 21:34N 37°49' W 122°19'0 0.0
2014-Nov-18 20:34N 37°49' W 122°19'0 0.0
2014-Nov-18 19:34N 37°49' W 122°19'0 0.0
2014-Nov-18 18:34N 37°49' W 122°19'  

Dump ship's entire track history